Time;durP1;ratioP1;P1;durP2;ratioP2;P2;SDS_P1;SDS_P2;PMS_P1;PMS_P2;Temp;Humidity;BMP_temperature;BMP_pressure;BME280_temperature;BME280_humidity;BME280_pressure;Samples;Min_cycle;Max_cycle;Signal;HPM_P1;HPM_P2
2021/03/30 00:00:31;;;;;;;71.93;39.22;;;13.00;99.90;;;;;;5072985;28;20470;-75
2021/03/30 00:02:57;;;;;;;65.18;39.35;;;13.00;99.90;;;;;;5074667;28;20074;-74
2021/03/30 00:05:23;;;;;;;69.70;38.67;;;13.00;99.90;;;;;;5074047;28;20032;-74
2021/03/30 00:07:49;;;;;;;71.38;41.38;;;12.90;99.90;;;;;;5074475;28;20025;-74
2021/03/30 00:10:17;;;;;;;69.57;40.10;;;12.90;99.90;;;;;;5074657;28;20444;-74
2021/03/30 00:12:43;;;;;;;62.30;39.72;;;12.80;99.90;;;;;;5073083;28;20023;-74
2021/03/30 00:15:11;;;;;;;66.75;40.22;;;12.80;99.90;;;;;;5074478;28;20111;-74
2021/03/30 00:17:37;;;;;;;69.72;40.40;;;12.80;99.90;;;;;;5073008;28;20550;-74
2021/03/30 00:20:13;;;;;;;66.15;39.30;;;12.70;99.90;;;;;;5088936;28;20393;-74
2021/03/30 00:22:38;;;;;;;70.20;39.58;;;12.70;99.90;;;;;;5093098;28;20036;-74
2021/03/30 00:25:06;;;;;;;67.20;40.13;;;12.70;99.90;;;;;;5075620;28;20029;-74
2021/03/30 00:27:32;;;;;;;73.15;41.38;;;12.70;99.90;;;;;;5073934;28;20060;-74
2021/03/30 00:29:58;;;;;;;68.72;40.35;;;12.70;99.90;;;;;;5074406;28;20048;-74
2021/03/30 00:32:24;;;;;;;69.43;38.72;;;12.70;99.90;;;;;;5072762;28;20070;-74
2021/03/30 00:34:49;;;;;;;69.72;39.53;;;12.70;99.90;;;;;;5074254;28;20131;-74
2021/03/30 00:37:15;;;;;;;70.72;40.35;;;12.70;99.90;;;;;;5073752;28;20489;-74
2021/03/30 00:39:41;;;;;;;69.25;39.50;;;12.70;99.90;;;;;;5073723;28;20031;-74
2021/03/30 00:42:07;;;;;;;71.07;41.50;;;12.70;99.90;;;;;;5066910;28;20020;-74
2021/03/30 00:44:33;;;;;;;71.28;41.42;;;12.70;99.90;;;;;;5074222;28;20028;-74
2021/03/30 00:47:01;;;;;;;75.25;41.00;;;12.60;99.90;;;;;;5072402;28;20025;-74
2021/03/30 00:49:30;;;;;;;67.78;40.10;;;12.60;99.90;;;;;;5074045;28;20095;-74
2021/03/30 00:51:56;;;;;;;63.55;38.25;;;12.70;99.90;;;;;;5073420;28;20028;-74
2021/03/30 00:54:22;;;;;;;69.68;40.28;;;12.60;99.90;;;;;;5073815;28;20027;-74
2021/03/30 00:56:48;;;;;;;69.43;38.78;;;12.60;99.90;;;;;;5073624;28;20024;-75
2021/03/30 00:59:16;;;;;;;70.47;40.85;;;12.60;99.90;;;;;;5073544;28;20029;-75
2021/03/30 01:01:41;;;;;;;68.80;40.08;;;12.60;99.90;;;;;;5072638;28;20470;-74
2021/03/30 01:04:07;;;;;;;68.18;39.88;;;12.50;99.90;;;;;;5073531;28;20017;-75
2021/03/30 01:06:33;;;;;;;64.68;38.53;;;12.50;99.90;;;;;;5072863;28;20107;-74
2021/03/30 01:09:10;;;;;;;71.35;40.53;;;12.50;99.90;;;;;;5073061;28;20540;-75
2021/03/30 01:12:04;;;;;;;72.80;40.90;;;12.40;99.90;;;;;;5065154;28;20099;-74
2021/03/30 01:14:55;;;;;;;66.40;39.22;;;12.40;99.90;;;;;;5053410;28;20025;-74
2021/03/30 01:18:00;;;;;;;71.57;40.95;;;12.40;99.90;;;;;;5085825;28;20039;-74
2021/03/30 01:21:02;;;;;;;67.63;39.63;;;12.30;99.90;;;;;;5051990;28;20100;-74
2021/03/30 01:23:57;;;;;;;71.43;41.88;;;12.30;99.90;;;;;;5069642;28;20048;-74
2021/03/30 01:26:25;;;;;;;65.15;39.67;;;12.30;99.90;;;;;;5071634;28;20036;-75
2021/03/30 01:29:00;;;;;;;67.07;37.95;;;12.20;99.90;;;;;;5073029;28;20568;-74
2021/03/30 01:31:28;;;;;;;73.10;40.72;;;12.20;99.90;;;;;;5073278;28;20066;-74
2021/03/30 01:33:56;;;;;;;63.05;36.60;;;12.20;99.90;;;;;;5072762;28;20032;-74
2021/03/30 01:36:23;;;;;;;69.53;40.45;;;12.20;99.90;;;;;;5073084;28;20390;-74
2021/03/30 01:38:50;;;;;;;64.97;38.33;;;12.20;99.90;;;;;;5072820;28;20024;-74
2021/03/30 01:41:18;;;;;;;69.50;40.25;;;12.30;99.90;;;;;;5068760;28;20029;-74
2021/03/30 01:43:46;;;;;;;65.82;39.50;;;12.20;99.90;;;;;;5053098;28;20029;-74
2021/03/30 01:46:13;;;;;;;69.45;40.45;;;12.20;99.90;;;;;;5052720;28;20056;-74
2021/03/30 01:48:41;;;;;;;73.22;40.42;;;12.20;99.90;;;;;;5071555;28;20048;-75
2021/03/30 01:51:08;;;;;;;66.75;38.47;;;12.30;99.90;;;;;;5072472;28;20025;-74
2021/03/30 01:53:35;;;;;;;62.28;36.67;;;12.30;99.90;;;;;;5072661;28;20116;-75
2021/03/30 01:56:03;;;;;;;69.38;38.45;;;12.30;99.90;;;;;;5072744;28;20074;-74
2021/03/30 01:58:30;;;;;;;64.60;38.28;;;12.30;99.90;;;;;;5072525;28;20024;-74
2021/03/30 02:00:59;;;;;;;66.38;38.08;;;12.20;99.90;;;;;;5071010;28;20509;-74
2021/03/30 02:03:27;;;;;;;69.85;38.58;;;12.20;99.90;;;;;;5072718;28;20025;-74
2021/03/30 02:05:57;;;;;;;65.75;38.42;;;12.20;99.90;;;;;;5071228;28;20062;-74
2021/03/30 02:08:31;;;;;;;65.80;37.85;;;12.20;99.90;;;;;;5071322;28;20021;-74
2021/03/30 02:10:57;;;;;;;67.70;38.45;;;12.10;99.90;;;;;;5072427;28;20016;-74
2021/03/30 02:13:32;;;;;;;66.25;37.00;;;12.20;99.90;;;;;;5072159;28;20051;-74
2021/03/30 02:16:07;;;;;;;62.70;36.42;;;12.20;99.90;;;;;;5070791;28;20068;-74
2021/03/30 02:18:44;;;;;;;63.17;36.42;;;12.20;99.90;;;;;;5072416;28;20078;-74
2021/03/30 02:21:15;;;;;;;64.57;35.30;;;12.10;99.90;;;;;;5073618;28;20040;-74
2021/03/30 02:23:43;;;;;;;62.92;36.70;;;12.20;99.90;;;;;;5076451;28;20044;-74
2021/03/30 02:26:10;;;;;;;63.25;36.50;;;12.10;99.90;;;;;;5072403;28;20028;-74
2021/03/30 02:28:43;;;;;;;59.47;35.67;;;12.10;99.90;;;;;;5072040;28;20041;-74
2021/03/30 02:31:13;;;;;;;58.25;34.78;;;12.10;99.90;;;;;;5070833;28;20119;-74
2021/03/30 02:33:40;;;;;;;60.95;36.40;;;12.10;99.90;;;;;;5072330;28;20499;-74
2021/03/30 02:36:07;;;;;;;60.53;36.25;;;12.00;99.90;;;;;;5072388;28;20020;-74
2021/03/30 02:38:34;;;;;;;57.53;35.75;;;12.00;99.90;;;;;;5072177;28;20082;-75
2021/03/30 02:41:00;;;;;;;64.90;36.55;;;12.00;99.90;;;;;;5071043;28;20025;-74
2021/03/30 02:43:27;;;;;;;55.92;34.97;;;12.00;99.90;;;;;;5072085;28;20475;-74
2021/03/30 02:45:54;;;;;;;61.95;35.75;;;12.00;99.90;;;;;;5071312;28;20020;-74
2021/03/30 02:48:21;;;;;;;59.15;36.08;;;12.00;99.90;;;;;;5072280;28;20052;-74
2021/03/30 02:50:49;;;;;;;59.08;34.88;;;12.10;99.90;;;;;;5072068;28;20070;-74
2021/03/30 02:53:15;;;;;;;60.08;34.38;;;12.10;99.90;;;;;;5072173;28;20055;-75
2021/03/30 02:55:43;;;;;;;63.65;35.95;;;12.10;99.90;;;;;;5072290;28;20550;-74
2021/03/30 02:58:10;;;;;;;59.97;34.45;;;12.10;99.90;;;;;;5071855;28;20031;-74
2021/03/30 03:00:38;;;;;;;63.13;34.47;;;12.00;99.90;;;;;;5071981;28;20035;-75
2021/03/30 03:03:05;;;;;;;56.63;34.55;;;12.00;99.90;;;;;;5071926;28;20020;-74
2021/03/30 03:05:31;;;;;;;63.25;33.63;;;12.00;99.90;;;;;;5072012;28;20063;-74
2021/03/30 03:07:57;;;;;;;65.45;35.03;;;12.10;99.90;;;;;;5072061;28;20048;-74
2021/03/30 03:10:23;;;;;;;57.80;34.25;;;12.00;99.90;;;;;;5070941;28;20021;-75
2021/03/30 03:12:50;;;;;;;62.42;34.67;;;12.00;99.90;;;;;;5070322;28;20020;-74
2021/03/30 03:15:18;;;;;;;61.47;34.38;;;12.00;99.90;;;;;;5070339;28;20028;-75
2021/03/30 03:17:44;;;;;;;56.50;32.97;;;12.00;99.90;;;;;;5071994;28;20024;-74
2021/03/30 03:20:11;;;;;;;61.42;34.15;;;11.90;99.90;;;;;;5070674;28;20517;-74
2021/03/30 03:22:38;;;;;;;53.97;31.83;;;11.90;99.90;;;;;;5071521;28;20516;-74
2021/03/30 03:25:06;;;;;;;62.72;33.60;;;11.90;99.90;;;;;;5074811;28;20031;-75
2021/03/30 03:27:34;;;;;;;55.47;32.15;;;11.90;99.90;;;;;;5075397;28;20031;-74
2021/03/30 03:30:07;;;;;;;61.80;33.83;;;11.90;99.90;;;;;;5075507;28;20020;-74
2021/03/30 03:32:33;;;;;;;58.15;33.53;;;11.90;99.90;;;;;;5075464;28;20025;-74
2021/03/30 03:34:59;;;;;;;57.35;33.72;;;11.80;99.90;;;;;;5075498;28;20372;-74
2021/03/30 03:37:25;;;;;;;59.67;32.13;;;11.80;99.90;;;;;;5074818;28;20040;-74
2021/03/30 03:39:51;;;;;;;58.00;32.97;;;11.80;99.90;;;;;;5075274;28;20017;-74
2021/03/30 03:42:16;;;;;;;49.28;31.17;;;11.80;99.90;;;;;;5075283;28;20028;-74
2021/03/30 03:44:42;;;;;;;56.10;32.00;;;11.80;99.90;;;;;;5074960;28;20466;-75
2021/03/30 03:47:08;;;;;;;57.28;32.13;;;11.80;99.90;;;;;;5073683;28;20032;-74
2021/03/30 03:49:34;;;;;;;55.92;29.83;;;11.80;99.90;;;;;;5073599;28;20031;-74
2021/03/30 03:52:05;;;;;;;51.80;30.95;;;11.80;99.90;;;;;;5073186;28;20032;-75
2021/03/30 03:54:32;;;;;;;54.85;31.30;;;11.70;99.90;;;;;;5074893;28;20028;-74
2021/03/30 03:57:06;;;;;;;55.28;32.03;;;11.70;99.90;;;;;;5074730;28;20028;-74
2021/03/30 03:59:34;;;;;;;61.13;29.67;;;11.80;99.90;;;;;;5073580;28;20489;-74
2021/03/30 04:02:23;;;;;;;53.85;31.40;;;11.70;99.90;;;;;;5074618;28;20031;-74
2021/03/30 04:04:51;;;;;;;53.67;30.33;;;11.70;99.90;;;;;;5074759;28;20025;-75
2021/03/30 04:07:29;;;;;;;47.53;28.77;;;11.80;99.90;;;;;;5074717;28;20029;-74
2021/03/30 04:09:56;;;;;;;51.38;30.80;;;11.80;99.90;;;;;;5073518;28;20577;-74
2021/03/30 04:12:27;;;;;;;52.65;30.08;;;11.70;99.90;;;;;;5059999;28;20028;-74
2021/03/30 04:14:53;;;;;;;50.33;29.38;;;11.80;99.90;;;;;;5070729;28;20024;-74
2021/03/30 04:17:19;;;;;;;59.47;30.50;;;11.80;99.90;;;;;;5074226;28;20056;-74
2021/03/30 04:19:45;;;;;;;51.25;28.90;;;11.80;99.90;;;;;;5074377;28;20082;-74
2021/03/30 04:22:17;;;;;;;52.22;29.67;;;11.80;99.90;;;;;;5073080;28;20057;-74
2021/03/30 04:24:44;;;;;;;54.95;30.70;;;11.80;99.90;;;;;;5072759;28;20064;-75
2021/03/30 04:27:14;;;;;;;47.42;28.75;;;11.80;99.90;;;;;;5070302;28;20025;-73
2021/03/30 04:29:40;;;;;;;54.80;30.20;;;11.80;99.90;;;;;;5071733;28;20055;-74
2021/03/30 04:32:11;;;;;;;50.42;28.20;;;11.80;99.90;;;;;;5072659;28;20016;-74
2021/03/30 04:34:37;;;;;;;48.70;29.08;;;11.90;99.90;;;;;;5070985;28;20360;-74
2021/03/30 04:37:03;;;;;;;52.70;30.17;;;11.80;99.90;;;;;;5071967;28;20033;-74
2021/03/30 04:39:29;;;;;;;53.35;29.45;;;11.80;99.90;;;;;;5070256;28;20051;-74
2021/03/30 04:41:55;;;;;;;52.00;29.90;;;11.80;99.90;;;;;;5071429;28;20503;-74
2021/03/30 04:44:21;;;;;;;50.70;29.42;;;11.80;99.90;;;;;;5072357;28;20444;-74
2021/03/30 04:46:46;;;;;;;54.53;30.00;;;11.80;99.90;;;;;;5072624;28;20025;-74
2021/03/30 04:49:12;;;;;;;59.70;29.33;;;11.80;99.90;;;;;;5074081;28;20025;-75
2021/03/30 04:51:38;;;;;;;54.90;29.85;;;11.80;99.90;;;;;;5073604;28;20107;-74
2021/03/30 04:54:04;;;;;;;49.33;29.42;;;11.70;99.90;;;;;;5074001;28;20021;-74
2021/03/30 04:56:30;;;;;;;61.03;30.20;;;11.80;99.90;;;;;;5073518;28;20182;-74
2021/03/30 04:58:55;;;;;;;49.28;27.50;;;11.80;99.90;;;;;;5071952;28;20123;-75
2021/03/30 05:01:21;;;;;;;45.08;28.65;;;11.80;99.90;;;;;;5073585;28;20028;-75
2021/03/30 05:03:47;;;;;;;44.42;28.40;;;11.80;99.90;;;;;;5070617;28;20058;-74
2021/03/30 05:06:12;;;;;;;52.58;28.05;;;11.80;99.90;;;;;;5062143;28;20036;-74
2021/03/30 05:08:38;;;;;;;46.72;26.52;;;11.80;99.90;;;;;;5061563;28;20025;-77
2021/03/30 05:11:04;;;;;;;54.90;28.50;;;11.80;99.90;;;;;;5066991;28;20029;-77
2021/03/30 05:13:30;;;;;;;50.45;28.00;;;11.80;99.90;;;;;;5053757;28;20017;-76
2021/03/30 05:15:55;;;;;;;49.10;27.75;;;11.80;99.90;;;;;;5066134;28;20025;-77
2021/03/30 05:18:21;;;;;;;50.20;27.02;;;11.80;99.90;;;;;;5073453;28;20382;-76
2021/03/30 05:20:47;;;;;;;44.10;26.70;;;11.70;99.90;;;;;;5072218;28;20116;-76
2021/03/30 05:23:12;;;;;;;48.80;28.48;;;11.70;99.90;;;;;;5073328;28;20047;-77
2021/03/30 05:25:38;;;;;;;45.88;27.10;;;11.70;99.90;;;;;;5073389;28;20493;-77
2021/03/30 05:28:05;;;;;;;52.60;26.63;;;11.70;99.90;;;;;;5072581;28;20055;-77
2021/03/30 05:30:31;;;;;;;43.22;26.13;;;11.70;99.90;;;;;;5071102;28;20504;-74
2021/03/30 05:32:57;;;;;;;47.78;24.80;;;11.70;99.90;;;;;;5070576;28;20016;-75
2021/03/30 05:35:23;;;;;;;43.25;25.52;;;11.70;99.90;;;;;;5071682;28;20020;-74
2021/03/30 05:37:49;;;;;;;53.45;26.98;;;11.70;99.90;;;;;;5071523;28;20559;-74
2021/03/30 05:40:17;;;;;;;44.10;25.27;;;11.70;99.90;;;;;;5071509;28;20028;-75
2021/03/30 05:42:43;;;;;;;40.35;24.35;;;11.70;99.90;;;;;;5072609;28;20425;-74
2021/03/30 05:45:12;;;;;;;42.75;25.30;;;11.80;99.90;;;;;;5072338;28;20020;-74
2021/03/30 05:47:38;;;;;;;46.95;25.08;;;11.80;99.90;;;;;;5071041;28;20055;-74
2021/03/30 05:50:12;;;;;;;41.85;24.75;;;11.80;99.90;;;;;;5070930;28;20027;-75
2021/03/30 05:52:46;;;;;;;45.67;24.75;;;11.80;99.90;;;;;;5071399;28;20493;-74
2021/03/30 05:55:26;;;;;;;43.22;24.63;;;11.80;99.90;;;;;;5072279;28;20029;-75
2021/03/30 05:57:54;;;;;;;40.72;22.20;;;11.80;99.90;;;;;;5072294;28;20107;-74
2021/03/30 06:00:26;;;;;;;40.05;22.83;;;11.80;99.90;;;;;;5072755;28;20351;-75
2021/03/30 06:02:54;;;;;;;41.47;23.63;;;11.90;99.90;;;;;;5071552;28;20024;-74
2021/03/30 06:05:20;;;;;;;38.58;22.73;;;11.90;99.90;;;;;;5072747;28;20390;-74
2021/03/30 06:07:46;;;;;;;43.00;24.95;;;11.90;99.90;;;;;;5070973;28;20089;-74
2021/03/30 06:10:15;;;;;;;44.28;24.02;;;12.00;99.70;;;;;;5072490;28;20021;-74
2021/03/30 06:12:41;;;;;;;42.10;25.02;;;12.10;99.60;;;;;;5056569;28;20017;-74
2021/03/30 06:15:09;;;;;;;41.83;23.42;;;12.10;99.60;;;;;;5072079;28;20029;-74
2021/03/30 06:17:49;;;;;;;41.42;23.27;;;12.10;99.70;;;;;;5075190;28;20055;-74
2021/03/30 06:20:27;;;;;;;40.13;21.85;;;12.20;99.60;;;;;;5070845;28;20033;-75
2021/03/30 06:22:55;;;;;;;41.40;22.42;;;12.20;99.60;;;;;;5072411;28;20144;-75
2021/03/30 06:25:43;;;;;;;36.33;22.20;;;12.20;99.40;;;;;;5072519;28;20025;-74
2021/03/30 06:28:19;;;;;;;44.45;23.63;;;12.30;99.30;;;;;;5072060;28;20036;-74
2021/03/30 06:31:10;;;;;;;37.08;21.40;;;12.40;99.40;;;;;;5071389;28;20031;-74
2021/03/30 06:33:56;;;;;;;37.97;21.50;;;12.40;99.20;;;;;;5063961;28;20062;-74
2021/03/30 06:36:29;;;;;;;40.83;21.40;;;12.50;99.20;;;;;;5072289;28;20017;-74
2021/03/30 06:39:05;;;;;;;35.95;20.75;;;12.50;99.10;;;;;;5070076;28;20036;-74
2021/03/30 06:44:27;;;;;;;41.95;21.95;;;12.60;99.10;;;;;;5071242;28;20036;-74
2021/03/30 06:46:55;;;;;;;44.72;22.35;;;12.60;99.50;;;;;;5070692;28;20024;-74
2021/03/30 06:49:22;;;;;;;41.03;23.05;;;12.70;99.80;;;;;;5070328;28;20040;-74
2021/03/30 06:51:49;;;;;;;39.67;22.85;;;12.80;99.80;;;;;;5071984;28;20032;-75
2021/03/30 06:54:20;;;;;;;42.17;22.98;;;12.80;99.70;;;;;;5071873;28;20111;-74
2021/03/30 06:56:54;;;;;;;40.08;22.20;;;12.90;99.80;;;;;;5068812;28;20041;-74
2021/03/30 06:59:21;;;;;;;40.97;22.63;;;12.90;99.80;;;;;;5070569;28;20111;-74
2021/03/30 07:01:52;;;;;;;47.15;23.92;;;13.00;99.30;;;;;;5073365;28;20079;-74
2021/03/30 07:04:19;;;;;;;45.70;23.85;;;13.00;99.30;;;;;;5072084;28;20051;-74
2021/03/30 07:06:52;;;;;;;45.53;23.60;;;13.10;99.40;;;;;;5073957;28;20067;-74
2021/03/30 07:09:19;;;;;;;45.67;24.73;;;13.10;99.40;;;;;;5076434;28;20016;-74
2021/03/30 07:11:45;;;;;;;47.65;23.27;;;13.20;99.40;;;;;;5076219;28;20595;-74
2021/03/30 07:14:11;;;;;;;48.05;23.67;;;13.20;99.30;;;;;;5077896;28;20016;-74
2021/03/30 07:16:55;;;;;;;49.95;27.60;;;13.30;99.30;;;;;;5079548;28;20506;-74
2021/03/30 07:19:24;;;;;;;49.03;28.02;;;13.30;99.90;;;;;;5074937;28;20056;-78
2021/03/30 07:22:10;;;;;;;58.63;34.63;;;13.30;99.90;;;;;;5074473;28;20091;-78
2021/03/30 07:24:49;;;;;;;62.80;36.95;;;13.40;99.90;;;;;;5075205;28;20032;-78
2021/03/30 07:27:19;;;;;;;63.08;35.88;;;13.50;99.90;;;;;;5073597;28;20025;-78
2021/03/30 07:29:49;;;;;;;72.88;38.40;;;13.50;99.90;;;;;;5077491;28;20024;-77
2021/03/30 07:32:31;;;;;;;64.80;39.35;;;13.70;99.90;;;;;;5076044;28;20013;-77
2021/03/30 07:35:08;;;;;;;76.97;40.60;;;13.80;99.90;;;;;;5074131;28;20032;-79
2021/03/30 07:37:47;;;;;;;61.85;35.55;;;13.90;99.90;;;;;;5072043;28;20028;-79
2021/03/30 07:40:14;;;;;;;72.45;37.80;;;14.00;99.90;;;;;;5070156;28;20035;-73
2021/03/30 07:42:42;;;;;;;68.05;39.20;;;14.00;99.90;;;;;;5072539;28;20112;-72
2021/03/30 07:45:11;;;;;;;70.43;38.92;;;14.00;99.90;;;;;;5074740;28;20028;-73
2021/03/30 07:47:38;;;;;;;67.40;38.17;;;14.10;99.90;;;;;;5073819;28;20071;-73
2021/03/30 07:50:16;;;;;;;63.67;37.65;;;14.10;99.90;;;;;;5072680;28;20052;-73
2021/03/30 07:52:47;;;;;;;67.00;36.55;;;14.20;99.90;;;;;;5077777;28;20021;-73
2021/03/30 07:55:17;;;;;;;65.15;37.47;;;14.20;99.90;;;;;;5077933;28;20020;-73
2021/03/30 07:58:13;;;;;;;67.00;39.13;;;14.20;99.90;;;;;;5075520;28;20073;-73
2021/03/30 08:00:38;;;;;;;67.93;40.95;;;14.30;99.50;;;;;;5071654;28;20017;-72
2021/03/30 08:03:26;;;;;;;66.07;37.95;;;14.30;99.40;;;;;;5072904;28;20039;-73
2021/03/30 08:06:19;;;;;;;66.38;37.90;;;14.30;99.60;;;;;;5068026;28;20067;-73
2021/03/30 08:08:57;;;;;;;61.40;37.10;;;14.30;99.70;;;;;;5075413;28;20024;-73
2021/03/30 08:11:58;;;;;;;63.13;38.03;;;14.30;99.90;;;;;;5073157;28;20025;-73
2021/03/30 08:14:28;;;;;;;67.63;36.47;;;14.40;99.90;;;;;;5054589;28;20049;-73
2021/03/30 08:16:56;;;;;;;65.25;37.15;;;14.40;99.80;;;;;;5078297;28;20039;-73
2021/03/30 08:19:25;;;;;;;72.55;42.45;;;14.50;99.90;;;;;;5072589;28;20025;-73
2021/03/30 08:22:06;;;;;;;76.18;41.80;;;14.60;99.90;;;;;;5071519;28;20448;-73
2021/03/30 08:24:43;;;;;;;72.55;41.58;;;14.60;99.90;;;;;;5072876;28;20028;-72
2021/03/30 08:27:32;;;;;;;65.97;39.47;;;14.70;99.90;;;;;;5074462;28;20067;-73
2021/03/30 08:30:15;;;;;;;74.30;40.92;;;14.90;99.90;;;;;;5075719;28;20031;-73
2021/03/30 08:32:47;;;;;;;75.05;40.65;;;15.00;99.90;;;;;;5074358;28;20021;-73
2021/03/30 08:35:32;;;;;;;69.22;39.92;;;14.90;99.90;;;;;;5073883;28;20048;-73
2021/03/30 08:37:59;;;;;;;73.18;39.75;;;15.00;99.90;;;;;;5082187;28;20501;-72
2021/03/30 08:40:34;;;;;;;70.53;41.45;;;15.00;99.90;;;;;;5072326;28;20021;-73
2021/03/30 08:43:21;;;;;;;75.35;40.65;;;15.00;99.90;;;;;;5068782;28;20025;-73
2021/03/30 08:45:59;;;;;;;66.40;40.20;;;15.20;99.90;;;;;;5073875;28;20538;-73
2021/03/30 08:48:48;;;;;;;71.35;41.00;;;15.20;99.90;;;;;;5072421;28;20028;-73
2021/03/30 08:51:16;;;;;;;77.90;42.50;;;15.10;99.90;;;;;;5070956;28;20021;-73
2021/03/30 08:53:44;;;;;;;72.20;41.65;;;15.30;99.90;;;;;;5077036;28;20024;-72
2021/03/30 08:56:11;;;;;;;72.53;41.95;;;15.30;99.90;;;;;;5077890;28;20020;-73
2021/03/30 08:58:44;;;;;;;70.25;41.53;;;15.30;99.90;;;;;;5072627;28;20059;-73
2021/03/30 09:01:10;;;;;;;;;;;15.40;99.90;;;;;;5074469;28;20037;-73
2021/03/30 09:03:36;;;;;;;70.40;40.80;;;15.40;99.70;;;;;;5071811;28;19957;-73
2021/03/30 09:06:02;;;;;;;76.03;42.55;;;15.30;99.90;;;;;;5070471;28;20386;-73
2021/03/30 09:08:35;;;;;;;72.97;42.42;;;15.30;99.90;;;;;;5070138;28;20025;-73
2021/03/30 09:11:17;;;;;;;76.15;42.03;;;15.30;99.90;;;;;;5074349;28;20035;-73
2021/03/30 09:14:03;;;;;;;81.88;43.40;;;15.40;99.90;;;;;;5074239;28;20385;-73
2021/03/30 09:16:29;;;;;;;80.22;43.28;;;15.40;99.80;;;;;;5066988;28;20082;-73
2021/03/30 09:19:15;;;;;;;81.00;44.55;;;15.40;99.90;;;;;;5072194;28;20043;-73
2021/03/30 09:21:42;;;;;;;80.22;44.03;;;15.60;99.90;;;;;;5069086;28;20078;-73
2021/03/30 09:24:19;;;;;;;74.32;42.65;;;15.60;99.90;;;;;;5072700;28;20033;-73
2021/03/30 09:26:49;;;;;;;73.43;42.85;;;15.50;99.90;;;;;;5071240;28;20047;-73
2021/03/30 09:29:17;;;;;;;72.80;43.50;;;15.70;99.90;;;;;;5069835;28;20025;-73
2021/03/30 09:31:45;;;;;;;72.32;41.05;;;15.70;99.00;;;;;;5074259;28;20028;-73
2021/03/30 09:34:11;;;;;;;75.13;41.10;;;15.70;99.30;;;;;;5075074;28;20675;-73
2021/03/30 09:36:44;;;;;;;70.82;38.97;;;15.80;99.30;;;;;;5077284;28;20028;-73
2021/03/30 09:39:20;;;;;;;62.97;38.05;;;15.80;98.60;;;;;;5070580;28;20032;-73
2021/03/30 09:41:48;;;;;;;73.97;39.35;;;15.90;97.60;;;;;;5071044;28;20052;-73
2021/03/30 09:44:14;;;;;;;69.85;39.00;;;15.90;97.60;;;;;;5072413;28;20075;-73
2021/03/30 09:46:40;;;;;;;64.50;39.05;;;15.90;98.10;;;;;;5070667;28;20033;-73
2021/03/30 09:49:08;;;;;;;65.43;39.22;;;16.00;98.50;;;;;;5072539;28;20025;-72
2021/03/30 09:51:37;;;;;;;70.85;37.80;;;16.20;97.10;;;;;;5071406;28;20108;-73
2021/03/30 09:54:31;;;;;;;66.70;36.55;;;16.30;96.70;;;;;;5074979;28;20812;-73
2021/03/30 09:57:10;;;;;;;61.00;36.10;;;16.40;95.00;;;;;;5070802;28;20390;-73
2021/03/30 09:59:36;;;;;;;67.35;37.03;;;16.40;95.40;;;;;;5068743;28;20034;-73
2021/03/30 10:02:03;;;;;;;63.75;35.90;;;16.50;95.90;;;;;;5071558;28;20024;-73
2021/03/30 10:04:32;;;;;;;69.13;36.83;;;16.60;95.20;;;;;;5071030;28;20037;-73
2021/03/30 10:06:58;;;;;;;65.35;37.03;;;16.60;95.60;;;;;;5070825;28;20025;-73
2021/03/30 10:09:23;;;;;;;66.45;35.13;;;16.50;95.70;;;;;;5075249;28;20027;-73
2021/03/30 10:11:51;;;;;;;61.25;36.28;;;16.50;95.80;;;;;;5072836;28;20502;-73
2021/03/30 10:14:25;;;;;;;66.03;37.17;;;16.60;95.10;;;;;;5075865;28;20024;-72
2021/03/30 10:16:53;;;;;;;65.55;36.33;;;16.60;94.60;;;;;;5076236;28;20055;-73
2021/03/30 10:19:20;;;;;;;62.25;35.63;;;16.70;94.80;;;;;;5077229;28;20025;-74
2021/03/30 10:21:52;;;;;;;59.42;35.13;;;16.70;94.70;;;;;;5071051;28;20048;-73
2021/03/30 10:24:18;;;;;;;60.38;35.17;;;17.00;94.60;;;;;;5069803;28;20111;-73
2021/03/30 10:27:05;;;;;;;63.55;34.88;;;17.20;93.80;;;;;;5068857;28;20041;-73
2021/03/30 10:29:37;;;;;;;65.75;35.08;;;17.20;93.10;;;;;;5073177;28;20016;-73
2021/03/30 10:32:11;;;;;;;65.65;36.67;;;17.20;93.30;;;;;;5071242;28;20048;-72
2021/03/30 10:34:36;;;;;;;62.95;36.40;;;17.30;93.60;;;;;;5077529;28;20363;-73
2021/03/30 10:37:08;;;;;;;64.32;35.95;;;17.40;93.20;;;;;;5079764;28;20036;-73
2021/03/30 10:39:42;;;;;;;57.78;34.70;;;17.50;92.90;;;;;;5072602;28;20024;-73
2021/03/30 10:42:11;;;;;;;61.05;35.35;;;17.70;93.90;;;;;;5080385;28;20020;-73
2021/03/30 10:44:44;;;;;;;59.17;35.63;;;18.00;94.00;;;;;;5075733;28;20035;-73
2021/03/30 10:47:13;;;;;;;65.57;35.22;;;18.20;93.20;;;;;;5072398;28;20082;-73
2021/03/30 10:49:39;;;;;;;64.85;36.67;;;18.30;93.00;;;;;;5076241;28;20031;-73
2021/03/30 10:52:05;;;;;;;62.13;35.97;;;18.40;91.30;;;;;;5077962;28;20025;-73
2021/03/30 10:54:31;;;;;;;67.80;37.60;;;18.30;91.40;;;;;;5073396;28;20147;-73
2021/03/30 10:56:57;;;;;;;59.47;34.95;;;18.50;91.40;;;;;;5076494;28;20032;-73
2021/03/30 10:59:24;;;;;;;66.72;37.67;;;18.50;90.70;;;;;;5082246;28;20550;-73
2021/03/30 11:01:50;;;;;;;57.40;36.00;;;18.50;91.40;;;;;;5076452;28;20383;-73
2021/03/30 11:04:16;;;;;;;59.58;35.85;;;18.70;91.70;;;;;;5072930;28;20033;-73
2021/03/30 11:06:45;;;;;;;60.95;35.80;;;18.90;90.80;;;;;;5071737;28;20119;-73
2021/03/30 11:09:12;;;;;;;65.05;37.17;;;18.90;90.80;;;;;;5075867;28;20474;-72
2021/03/30 11:11:40;;;;;;;61.35;35.67;;;19.10;89.80;;;;;;5074325;28;20367;-73
2021/03/30 11:14:06;;;;;;;56.85;33.78;;;19.20;90.00;;;;;;5076450;28;20016;-72
2021/03/30 11:16:32;;;;;;;61.22;33.78;;;19.20;90.20;;;;;;5077340;28;20036;-72
2021/03/30 11:18:57;;;;;;;54.28;32.92;;;19.30;88.50;;;;;;5079616;28;20560;-72
2021/03/30 11:21:23;;;;;;;65.88;33.15;;;19.30;85.30;;;;;;5079239;28;20087;-72
2021/03/30 11:23:49;;;;;;;60.97;35.45;;;19.40;84.80;;;;;;5079418;28;20074;-73
2021/03/30 11:26:16;;;;;;;59.45;33.47;;;19.40;82.80;;;;;;5074069;28;20029;-73
2021/03/30 11:28:45;;;;;;;57.72;34.33;;;19.50;83.50;;;;;;5073774;28;20023;-73
2021/03/30 11:31:31;;;;;;;56.92;32.60;;;19.50;82.40;;;;;;5073712;28;20031;-72
2021/03/30 11:34:07;;;;;;;62.70;32.78;;;19.50;82.90;;;;;;5077081;28;20036;-73
2021/03/30 11:36:39;;;;;;;57.20;33.80;;;19.60;82.30;;;;;;5077958;28;20439;-72
2021/03/30 11:39:05;;;;;;;59.30;33.67;;;19.80;83.50;;;;;;5078983;28;20079;-72
2021/03/30 11:41:31;;;;;;;57.58;34.20;;;20.00;83.40;;;;;;5081777;28;20016;-73
2021/03/30 11:43:56;;;;;;;64.05;32.95;;;20.10;81.40;;;;;;5075816;28;20054;-73
2021/03/30 11:46:22;;;;;;;54.55;32.53;;;20.10;80.90;;;;;;5072741;28;20340;-72
2021/03/30 11:48:48;;;;;;;56.22;30.90;;;20.30;80.70;;;;;;5074983;28;20056;-73
2021/03/30 11:51:14;;;;;;;53.28;32.05;;;20.50;81.50;;;;;;5074210;28;20543;-72
2021/03/30 11:53:43;;;;;;;62.97;32.28;;;20.50;79.10;;;;;;5073075;28;20020;-72
2021/03/30 11:56:09;;;;;;;53.85;32.05;;;20.70;79.20;;;;;;5074078;28;20047;-73
2021/03/30 11:58:36;;;;;;;56.05;31.88;;;20.70;77.50;;;;;;5069924;28;20479;-73
2021/03/30 12:01:01;;;;;;;57.22;31.90;;;20.60;76.50;;;;;;5065984;28;20029;-73
2021/03/30 12:03:27;;;;;;;55.90;32.95;;;20.70;77.60;;;;;;5072116;28;20043;-73
2021/03/30 12:05:53;;;;;;;56.22;31.17;;;20.70;74.00;;;;;;5072921;28;20612;-73
2021/03/30 12:08:18;;;;;;;53.17;30.17;;;20.80;76.40;;;;;;5073006;28;20029;-73
2021/03/30 12:10:44;;;;;;;53.70;30.08;;;21.00;75.80;;;;;;5074710;28;20089;-73
2021/03/30 12:13:10;;;;;;;56.70;30.58;;;21.10;76.20;;;;;;5073807;28;20112;-72
2021/03/30 12:15:36;;;;;;;53.25;28.30;;;21.30;75.70;;;;;;5073270;28;20025;-73
2021/03/30 12:18:01;;;;;;;47.95;27.73;;;21.30;74.50;;;;;;5077915;28;20039;-73
2021/03/30 12:20:27;;;;;;;49.97;26.60;;;21.50;74.70;;;;;;5077002;28;20032;-73
2021/03/30 12:22:53;;;;;;;51.22;29.30;;;21.60;71.80;;;;;;5075238;28;20055;-72
2021/03/30 12:25:18;;;;;;;47.90;26.20;;;21.60;68.80;;;;;;5069171;28;20033;-73
2021/03/30 12:27:44;;;;;;;48.28;27.10;;;21.70;70.70;;;;;;5064214;28;20762;-73
2021/03/30 12:30:10;;;;;;;49.92;26.67;;;21.80;69.80;;;;;;5069941;28;20025;-73
2021/03/30 12:32:37;;;;;;;44.80;25.15;;;21.80;68.30;;;;;;5071047;28;20039;-73
2021/03/30 12:35:03;;;;;;;56.60;27.92;;;21.90;65.80;;;;;;5071176;28;20044;-73
2021/03/30 12:37:29;;;;;;;50.40;26.75;;;21.90;65.50;;;;;;5071503;28;20490;-72
2021/03/30 12:39:55;;;;;;;44.97;25.40;;;21.90;64.50;;;;;;5069373;28;20022;-73
2021/03/30 12:42:21;;;;;;;49.63;25.73;;;22.00;67.50;;;;;;5072375;28;20024;-73
2021/03/30 12:44:46;;;;;;;47.38;25.27;;;22.10;63.60;;;;;;5070299;28;20020;-73